sensor_id;sensor_type;location;lat;lon;timestamp;temperature;humidity
12504;DHT22;6316;48.118;-1.690;2022-12-08T00:01:41;1.90;99.90
12504;DHT22;6316;48.118;-1.690;2022-12-08T00:04:07;1.90;99.90
12504;DHT22;6316;48.118;-1.690;2022-12-08T00:06:39;2.00;99.90
12504;DHT22;6316;48.118;-1.690;2022-12-08T00:09:25;1.90;99.90
12504;DHT22;6316;48.118;-1.690;2022-12-08T00:11:57;1.90;99.90
12504;DHT22;6316;48.118;-1.690;2022-12-08T00:14:25;2.00;99.90
12504;DHT22;6316;48.118;-1.690;2022-12-08T00:16:52;2.00;99.90
12504;DHT22;6316;48.118;-1.690;2022-12-08T00:19:18;2.00;99.90
12504;DHT22;6316;48.118;-1.690;2022-12-08T00:21:43;2.00;99.90
12504;DHT22;6316;48.118;-1.690;2022-12-08T00:24:09;2.00;99.90
12504;DHT22;6316;48.118;-1.690;2022-12-08T00:26:36;1.90;99.90
12504;DHT22;6316;48.118;-1.690;2022-12-08T00:29:01;1.90;99.90
12504;DHT22;6316;48.118;-1.690;2022-12-08T00:31:27;2.00;99.90
12504;DHT22;6316;48.118;-1.690;2022-12-08T00:33:53;1.90;99.90
12504;DHT22;6316;48.118;-1.690;2022-12-08T00:36:18;1.90;99.90
12504;DHT22;6316;48.118;-1.690;2022-12-08T00:38:44;2.00;99.90
12504;DHT22;6316;48.118;-1.690;2022-12-08T00:41:14;2.10;99.90
12504;DHT22;6316;48.118;-1.690;2022-12-08T00:43:40;2.00;99.90
12504;DHT22;6316;48.118;-1.690;2022-12-08T00:46:06;2.00;99.90
12504;DHT22;6316;48.118;-1.690;2022-12-08T00:48:32;1.90;99.90
12504;DHT22;6316;48.118;-1.690;2022-12-08T00:50:57;1.90;99.90
12504;DHT22;6316;48.118;-1.690;2022-12-08T00:53:23;1.90;99.90
12504;DHT22;6316;48.118;-1.690;2022-12-08T00:55:48;1.90;99.90
12504;DHT22;6316;48.118;-1.690;2022-12-08T00:58:14;1.90;99.90
12504;DHT22;6316;48.118;-1.690;2022-12-08T01:00:43;1.90;99.90
12504;DHT22;6316;48.118;-1.690;2022-12-08T01:03:11;2.00;99.90
12504;DHT22;6316;48.118;-1.690;2022-12-08T01:05:37;1.90;99.90
12504;DHT22;6316;48.118;-1.690;2022-12-08T01:08:07;1.90;99.90
12504;DHT22;6316;48.118;-1.690;2022-12-08T01:10:37;1.90;99.90
12504;DHT22;6316;48.118;-1.690;2022-12-08T01:13:03;1.90;99.90
12504;DHT22;6316;48.118;-1.690;2022-12-08T01:15:28;1.90;99.90
12504;DHT22;6316;48.118;-1.690;2022-12-08T01:17:54;1.90;99.90
12504;DHT22;6316;48.118;-1.690;2022-12-08T01:20:20;1.90;99.90
12504;DHT22;6316;48.118;-1.690;2022-12-08T01:22:45;1.90;99.90
12504;DHT22;6316;48.118;-1.690;2022-12-08T01:25:11;1.90;99.90
12504;DHT22;6316;48.118;-1.690;2022-12-08T01:27:36;1.90;99.90
12504;DHT22;6316;48.118;-1.690;2022-12-08T01:30:03;2.00;99.90
12504;DHT22;6316;48.118;-1.690;2022-12-08T01:32:28;2.00;99.90
12504;DHT22;6316;48.118;-1.690;2022-12-08T01:34:54;2.00;99.90
12504;DHT22;6316;48.118;-1.690;2022-12-08T01:37:20;2.00;99.90
12504;DHT22;6316;48.118;-1.690;2022-12-08T01:39:45;2.00;99.90
12504;DHT22;6316;48.118;-1.690;2022-12-08T01:42:22;2.00;99.90
12504;DHT22;6316;48.118;-1.690;2022-12-08T01:45:00;2.10;99.90
12504;DHT22;6316;48.118;-1.690;2022-12-08T01:47:34;2.10;99.90
12504;DHT22;6316;48.118;-1.690;2022-12-08T01:50:01;2.10;99.90
12504;DHT22;6316;48.118;-1.690;2022-12-08T01:52:40;2.10;99.90
12504;DHT22;6316;48.118;-1.690;2022-12-08T01:55:15;2.10;99.90
12504;DHT22;6316;48.118;-1.690;2022-12-08T01:57:54;2.10;99.90
12504;DHT22;6316;48.118;-1.690;2022-12-08T02:00:21;2.10;99.90
12504;DHT22;6316;48.118;-1.690;2022-12-08T02:02:52;2.10;99.90
12504;DHT22;6316;48.118;-1.690;2022-12-08T02:05:20;2.10;99.90
12504;DHT22;6316;48.118;-1.690;2022-12-08T02:07:47;2.10;99.90
12504;DHT22;6316;48.118;-1.690;2022-12-08T02:10:17;2.10;99.90
12504;DHT22;6316;48.118;-1.690;2022-12-08T02:12:44;2.10;99.90
12504;DHT22;6316;48.118;-1.690;2022-12-08T02:15:10;2.00;99.90
12504;DHT22;6316;48.118;-1.690;2022-12-08T02:17:50;2.10;99.90
12504;DHT22;6316;48.118;-1.690;2022-12-08T02:23:21;2.00;99.90
12504;DHT22;6316;48.118;-1.690;2022-12-08T02:26:20;2.00;99.90
12504;DHT22;6316;48.118;-1.690;2022-12-08T02:34:34;1.90;99.90
12504;DHT22;6316;48.118;-1.690;2022-12-08T02:37:31;1.90;99.90
12504;DHT22;6316;48.118;-1.690;2022-12-08T02:40:05;1.80;99.90
12504;DHT22;6316;48.118;-1.690;2022-12-08T02:42:39;1.80;99.90
12504;DHT22;6316;48.118;-1.690;2022-12-08T02:45:21;1.80;99.90
12504;DHT22;6316;48.118;-1.690;2022-12-08T02:47:50;1.70;99.90
12504;DHT22;6316;48.118;-1.690;2022-12-08T02:50:17;1.70;99.90
12504;DHT22;6316;48.118;-1.690;2022-12-08T02:52:47;1.70;99.90
12504;DHT22;6316;48.118;-1.690;2022-12-08T02:55:25;1.60;99.90
12504;DHT22;6316;48.118;-1.690;2022-12-08T03:00:30;1.60;99.90
12504;DHT22;6316;48.118;-1.690;2022-12-08T03:03:18;1.60;99.90
12504;DHT22;6316;48.118;-1.690;2022-12-08T03:08:40;1.60;99.90
12504;DHT22;6316;48.118;-1.690;2022-12-08T03:11:33;1.60;99.90
12504;DHT22;6316;48.118;-1.690;2022-12-08T03:14:03;1.60;99.90
12504;DHT22;6316;48.118;-1.690;2022-12-08T03:16:34;1.60;99.90
12504;DHT22;6316;48.118;-1.690;2022-12-08T03:19:13;1.60;99.90
12504;DHT22;6316;48.118;-1.690;2022-12-08T03:21:40;1.60;99.90
12504;DHT22;6316;48.118;-1.690;2022-12-08T03:24:09;1.60;99.90
12504;DHT22;6316;48.118;-1.690;2022-12-08T03:26:40;1.50;99.90
12504;DHT22;6316;48.118;-1.690;2022-12-08T03:29:08;1.50;99.90
12504;DHT22;6316;48.118;-1.690;2022-12-08T03:31:38;1.50;99.90
12504;DHT22;6316;48.118;-1.690;2022-12-08T03:34:06;1.40;99.90
12504;DHT22;6316;48.118;-1.690;2022-12-08T03:36:33;1.40;99.90
12504;DHT22;6316;48.118;-1.690;2022-12-08T03:38:59;1.40;99.90
12504;DHT22;6316;48.118;-1.690;2022-12-08T03:41:25;1.40;99.90
12504;DHT22;6316;48.118;-1.690;2022-12-08T03:43:53;1.30;99.90
12504;DHT22;6316;48.118;-1.690;2022-12-08T03:46:21;1.30;99.90
12504;DHT22;6316;48.118;-1.690;2022-12-08T03:48:47;1.40;99.90
12504;DHT22;6316;48.118;-1.690;2022-12-08T03:51:14;1.30;99.90
12504;DHT22;6316;48.118;-1.690;2022-12-08T03:53:39;1.30;99.90
12504;DHT22;6316;48.118;-1.690;2022-12-08T03:58:43;1.30;99.90
12504;DHT22;6316;48.118;-1.690;2022-12-08T04:01:09;1.20;99.90
12504;DHT22;6316;48.118;-1.690;2022-12-08T04:03:35;1.20;99.90
12504;DHT22;6316;48.118;-1.690;2022-12-08T04:06:01;1.20;99.90
12504;DHT22;6316;48.118;-1.690;2022-12-08T04:08:26;1.20;99.90
12504;DHT22;6316;48.118;-1.690;2022-12-08T04:10:52;1.20;99.90
12504;DHT22;6316;48.118;-1.690;2022-12-08T04:13:18;1.20;99.90
12504;DHT22;6316;48.118;-1.690;2022-12-08T04:15:45;1.20;99.90
12504;DHT22;6316;48.118;-1.690;2022-12-08T04:18:11;1.20;99.90
12504;DHT22;6316;48.118;-1.690;2022-12-08T04:20:40;1.20;99.90
12504;DHT22;6316;48.118;-1.690;2022-12-08T04:23:06;1.20;99.90
12504;DHT22;6316;48.118;-1.690;2022-12-08T04:25:32;1.20;99.90
12504;DHT22;6316;48.118;-1.690;2022-12-08T04:27:58;1.30;99.90
12504;DHT22;6316;48.118;-1.690;2022-12-08T04:30:24;1.30;99.90
12504;DHT22;6316;48.118;-1.690;2022-12-08T04:32:49;1.20;99.90
12504;DHT22;6316;48.118;-1.690;2022-12-08T04:35:15;1.30;99.90
12504;DHT22;6316;48.118;-1.690;2022-12-08T04:37:41;1.30;99.90
12504;DHT22;6316;48.118;-1.690;2022-12-08T04:40:09;1.30;99.90
12504;DHT22;6316;48.118;-1.690;2022-12-08T04:42:35;1.30;99.90
12504;DHT22;6316;48.118;-1.690;2022-12-08T04:45:01;1.30;99.90
12504;DHT22;6316;48.118;-1.690;2022-12-08T04:47:26;1.30;99.90
12504;DHT22;6316;48.118;-1.690;2022-12-08T04:49:52;1.40;99.90
12504;DHT22;6316;48.118;-1.690;2022-12-08T04:52:18;1.40;99.90
12504;DHT22;6316;48.118;-1.690;2022-12-08T04:54:43;1.40;99.90
12504;DHT22;6316;48.118;-1.690;2022-12-08T04:57:09;1.40;99.90
12504;DHT22;6316;48.118;-1.690;2022-12-08T04:59:35;1.40;99.90
12504;DHT22;6316;48.118;-1.690;2022-12-08T05:02:00;1.40;99.90
12504;DHT22;6316;48.118;-1.690;2022-12-08T05:04:26;1.40;99.90
12504;DHT22;6316;48.118;-1.690;2022-12-08T05:06:52;1.40;99.90
12504;DHT22;6316;48.118;-1.690;2022-12-08T05:09:18;1.40;99.90
12504;DHT22;6316;48.118;-1.690;2022-12-08T05:11:43;1.30;99.90
12504;DHT22;6316;48.118;-1.690;2022-12-08T05:14:14;1.30;99.90
12504;DHT22;6316;48.118;-1.690;2022-12-08T05:16:40;1.30;99.90
12504;DHT22;6316;48.118;-1.690;2022-12-08T05:19:06;1.30;99.90
12504;DHT22;6316;48.118;-1.690;2022-12-08T05:21:31;1.40;99.90
12504;DHT22;6316;48.118;-1.690;2022-12-08T05:23:57;1.40;99.90
12504;DHT22;6316;48.118;-1.690;2022-12-08T05:26:23;1.40;99.90
12504;DHT22;6316;48.118;-1.690;2022-12-08T05:28:48;1.40;99.90
12504;DHT22;6316;48.118;-1.690;2022-12-08T05:31:15;1.40;99.90
12504;DHT22;6316;48.118;-1.690;2022-12-08T05:33:42;1.40;99.90
12504;DHT22;6316;48.118;-1.690;2022-12-08T05:36:09;1.50;99.90
12504;DHT22;6316;48.118;-1.690;2022-12-08T05:38:36;1.50;99.90
12504;DHT22;6316;48.118;-1.690;2022-12-08T05:41:01;1.50;99.90
12504;DHT22;6316;48.118;-1.690;2022-12-08T05:43:27;1.50;99.90
12504;DHT22;6316;48.118;-1.690;2022-12-08T05:45:53;1.50;99.90
12504;DHT22;6316;48.118;-1.690;2022-12-08T05:48:19;1.60;99.90
12504;DHT22;6316;48.118;-1.690;2022-12-08T05:50:48;1.60;99.90
12504;DHT22;6316;48.118;-1.690;2022-12-08T05:53:16;1.60;99.90
12504;DHT22;6316;48.118;-1.690;2022-12-08T05:55:42;1.60;99.90
12504;DHT22;6316;48.118;-1.690;2022-12-08T05:58:11;1.60;99.90
12504;DHT22;6316;48.118;-1.690;2022-12-08T06:00:38;1.60;99.90
12504;DHT22;6316;48.118;-1.690;2022-12-08T06:03:03;1.60;99.90
12504;DHT22;6316;48.118;-1.690;2022-12-08T06:05:31;1.60;99.90
12504;DHT22;6316;48.118;-1.690;2022-12-08T06:07:57;1.60;99.90
12504;DHT22;6316;48.118;-1.690;2022-12-08T06:10:23;1.60;99.90
12504;DHT22;6316;48.118;-1.690;2022-12-08T06:12:48;1.60;99.90
12504;DHT22;6316;48.118;-1.690;2022-12-08T06:15:14;1.60;99.90
12504;DHT22;6316;48.118;-1.690;2022-12-08T06:17:40;1.60;99.90
12504;DHT22;6316;48.118;-1.690;2022-12-08T06:20:06;1.60;99.90
12504;DHT22;6316;48.118;-1.690;2022-12-08T06:22:31;1.60;99.90
12504;DHT22;6316;48.118;-1.690;2022-12-08T06:24:57;1.60;99.90
12504;DHT22;6316;48.118;-1.690;2022-12-08T06:27:23;1.60;99.90
12504;DHT22;6316;48.118;-1.690;2022-12-08T06:29:48;1.50;99.90
12504;DHT22;6316;48.118;-1.690;2022-12-08T06:32:14;1.50;99.90
12504;DHT22;6316;48.118;-1.690;2022-12-08T06:34:40;1.50;99.90
12504;DHT22;6316;48.118;-1.690;2022-12-08T06:37:05;1.50;99.90
12504;DHT22;6316;48.118;-1.690;2022-12-08T06:39:31;1.50;99.90
12504;DHT22;6316;48.118;-1.690;2022-12-08T06:41:56;1.40;99.90
12504;DHT22;6316;48.118;-1.690;2022-12-08T06:44:40;1.40;99.90
12504;DHT22;6316;48.118;-1.690;2022-12-08T06:47:06;1.40;99.90
12504;DHT22;6316;48.118;-1.690;2022-12-08T06:49:32;1.40;99.90
12504;DHT22;6316;48.118;-1.690;2022-12-08T06:51:57;1.40;99.90
12504;DHT22;6316;48.118;-1.690;2022-12-08T06:54:23;1.40;99.90
12504;DHT22;6316;48.118;-1.690;2022-12-08T06:56:49;1.40;99.90
12504;DHT22;6316;48.118;-1.690;2022-12-08T06:59:14;1.40;99.90
12504;DHT22;6316;48.118;-1.690;2022-12-08T07:01:41;1.40;99.90
12504;DHT22;6316;48.118;-1.690;2022-12-08T07:04:07;1.40;99.90
12504;DHT22;6316;48.118;-1.690;2022-12-08T07:06:33;1.40;99.90
12504;DHT22;6316;48.118;-1.690;2022-12-08T07:08:58;1.30;99.90
12504;DHT22;6316;48.118;-1.690;2022-12-08T07:11:24;1.30;99.90
12504;DHT22;6316;48.118;-1.690;2022-12-08T07:13:50;1.30;99.90
12504;DHT22;6316;48.118;-1.690;2022-12-08T07:16:15;1.30;99.90
12504;DHT22;6316;48.118;-1.690;2022-12-08T07:18:41;1.30;99.90
12504;DHT22;6316;48.118;-1.690;2022-12-08T07:21:10;1.30;99.90
12504;DHT22;6316;48.118;-1.690;2022-12-08T07:23:36;1.30;99.90
12504;DHT22;6316;48.118;-1.690;2022-12-08T07:26:04;1.30;99.90
12504;DHT22;6316;48.118;-1.690;2022-12-08T07:28:32;1.30;99.90
12504;DHT22;6316;48.118;-1.690;2022-12-08T07:30:58;1.30;99.90
12504;DHT22;6316;48.118;-1.690;2022-12-08T07:33:23;1.30;99.90
12504;DHT22;6316;48.118;-1.690;2022-12-08T07:36:00;1.30;99.90
12504;DHT22;6316;48.118;-1.690;2022-12-08T07:38:26;1.30;99.90
12504;DHT22;6316;48.118;-1.690;2022-12-08T07:40:53;1.30;99.90
12504;DHT22;6316;48.118;-1.690;2022-12-08T07:43:19;1.30;99.90
12504;DHT22;6316;48.118;-1.690;2022-12-08T07:45:45;1.30;99.90
12504;DHT22;6316;48.118;-1.690;2022-12-08T07:48:11;1.30;99.90
12504;DHT22;6316;48.118;-1.690;2022-12-08T07:50:38;1.30;99.90
12504;DHT22;6316;48.118;-1.690;2022-12-08T07:53:04;1.30;99.90
12504;DHT22;6316;48.118;-1.690;2022-12-08T07:55:29;1.30;99.90
12504;DHT22;6316;48.118;-1.690;2022-12-08T07:57:55;1.30;99.90
12504;DHT22;6316;48.118;-1.690;2022-12-08T08:00:21;1.40;99.90
12504;DHT22;6316;48.118;-1.690;2022-12-08T08:02:46;1.30;99.90
12504;DHT22;6316;48.118;-1.690;2022-12-08T08:05:12;1.30;99.90
12504;DHT22;6316;48.118;-1.690;2022-12-08T08:07:38;1.40;99.90
12504;DHT22;6316;48.118;-1.690;2022-12-08T08:10:06;1.50;99.90
12504;DHT22;6316;48.118;-1.690;2022-12-08T08:12:32;1.40;99.90
12504;DHT22;6316;48.118;-1.690;2022-12-08T08:14:59;1.50;99.90
12504;DHT22;6316;48.118;-1.690;2022-12-08T08:17:24;1.50;99.90
12504;DHT22;6316;48.118;-1.690;2022-12-08T08:19:50;1.40;99.90
12504;DHT22;6316;48.118;-1.690;2022-12-08T08:22:15;1.30;99.90
12504;DHT22;6316;48.118;-1.690;2022-12-08T08:24:41;1.40;99.90
12504;DHT22;6316;48.118;-1.690;2022-12-08T08:27:07;1.40;99.90
12504;DHT22;6316;48.118;-1.690;2022-12-08T08:29:32;1.40;99.90
12504;DHT22;6316;48.118;-1.690;2022-12-08T08:31:59;1.40;99.90
12504;DHT22;6316;48.118;-1.690;2022-12-08T08:34:24;1.40;99.90
12504;DHT22;6316;48.118;-1.690;2022-12-08T08:36:50;1.40;99.90
12504;DHT22;6316;48.118;-1.690;2022-12-08T08:39:15;1.40;99.90
12504;DHT22;6316;48.118;-1.690;2022-12-08T08:41:41;1.40;99.90
12504;DHT22;6316;48.118;-1.690;2022-12-08T08:44:07;1.50;99.90
12504;DHT22;6316;48.118;-1.690;2022-12-08T08:46:33;1.50;99.90
12504;DHT22;6316;48.118;-1.690;2022-12-08T08:48:59;1.50;99.90
12504;DHT22;6316;48.118;-1.690;2022-12-08T08:51:25;1.40;99.90
12504;DHT22;6316;48.118;-1.690;2022-12-08T08:53:51;1.50;99.90
12504;DHT22;6316;48.118;-1.690;2022-12-08T08:56:17;1.50;99.90
12504;DHT22;6316;48.118;-1.690;2022-12-08T08:58:45;1.40;99.90
12504;DHT22;6316;48.118;-1.690;2022-12-08T09:01:19;1.40;99.90
12504;DHT22;6316;48.118;-1.690;2022-12-08T09:03:46;1.40;99.90
12504;DHT22;6316;48.118;-1.690;2022-12-08T09:06:13;1.40;99.90
12504;DHT22;6316;48.118;-1.690;2022-12-08T09:08:40;1.40;99.90
12504;DHT22;6316;48.118;-1.690;2022-12-08T09:11:06;1.40;99.90
12504;DHT22;6316;48.118;-1.690;2022-12-08T09:13:32;1.50;99.90
12504;DHT22;6316;48.118;-1.690;2022-12-08T09:16:02;1.50;99.90
12504;DHT22;6316;48.118;-1.690;2022-12-08T09:18:29;1.50;99.90
12504;DHT22;6316;48.118;-1.690;2022-12-08T09:20:55;1.60;99.90
12504;DHT22;6316;48.118;-1.690;2022-12-08T09:23:21;1.60;99.90
12504;DHT22;6316;48.118;-1.690;2022-12-08T09:25:46;1.60;99.90
12504;DHT22;6316;48.118;-1.690;2022-12-08T09:28:13;1.60;99.90
12504;DHT22;6316;48.118;-1.690;2022-12-08T09:30:39;1.60;99.90
12504;DHT22;6316;48.118;-1.690;2022-12-08T09:33:05;1.70;99.90
12504;DHT22;6316;48.118;-1.690;2022-12-08T09:35:31;1.70;99.90
12504;DHT22;6316;48.118;-1.690;2022-12-08T09:37:57;1.80;99.90
12504;DHT22;6316;48.118;-1.690;2022-12-08T09:40:23;1.80;99.90
12504;DHT22;6316;48.118;-1.690;2022-12-08T09:45:33;2.00;99.90
12504;DHT22;6316;48.118;-1.690;2022-12-08T09:48:10;2.00;99.90
12504;DHT22;6316;48.118;-1.690;2022-12-08T09:51:04;2.10;99.90
12504;DHT22;6316;48.118;-1.690;2022-12-08T09:53:46;2.10;99.90
12504;DHT22;6316;48.118;-1.690;2022-12-08T09:56:24;2.20;99.90
12504;DHT22;6316;48.118;-1.690;2022-12-08T10:01:20;2.30;99.90
12504;DHT22;6316;48.118;-1.690;2022-12-08T10:03:47;2.40;99.90
12504;DHT22;6316;48.118;-1.690;2022-12-08T10:09:32;2.40;99.90
12504;DHT22;6316;48.118;-1.690;2022-12-08T10:12:09;2.40;99.90
12504;DHT22;6316;48.118;-1.690;2022-12-08T10:19:39;2.40;99.90
12504;DHT22;6316;48.118;-1.690;2022-12-08T10:22:24;2.40;99.90
12504;DHT22;6316;48.118;-1.690;2022-12-08T10:25:17;2.50;99.90
12504;DHT22;6316;48.118;-1.690;2022-12-08T10:27:45;2.40;99.90
12504;DHT22;6316;48.118;-1.690;2022-12-08T10:30:14;2.50;99.90
12504;DHT22;6316;48.118;-1.690;2022-12-08T10:32:44;2.50;99.90
12504;DHT22;6316;48.118;-1.690;2022-12-08T10:35:12;2.50;99.90
12504;DHT22;6316;48.118;-1.690;2022-12-08T10:37:38;2.60;99.90
12504;DHT22;6316;48.118;-1.690;2022-12-08T10:42:47;2.60;99.90
12504;DHT22;6316;48.118;-1.690;2022-12-08T10:45:26;2.70;99.90
12504;DHT22;6316;48.118;-1.690;2022-12-08T10:48:04;2.70;99.90
12504;DHT22;6316;48.118;-1.690;2022-12-08T10:50:40;2.70;99.90
12504;DHT22;6316;48.118;-1.690;2022-12-08T10:55:40;2.80;99.90
12504;DHT22;6316;48.118;-1.690;2022-12-08T10:58:40;2.70;99.90
12504;DHT22;6316;48.118;-1.690;2022-12-08T11:01:17;2.70;99.90
12504;DHT22;6316;48.118;-1.690;2022-12-08T11:08:50;2.70;99.90
12504;DHT22;6316;48.118;-1.690;2022-12-08T11:11:17;2.70;99.90
12504;DHT22;6316;48.118;-1.690;2022-12-08T11:13:44;2.70;99.90
12504;DHT22;6316;48.118;-1.690;2022-12-08T11:16:13;2.70;99.90
12504;DHT22;6316;48.118;-1.690;2022-12-08T11:18:46;2.70;99.90
12504;DHT22;6316;48.118;-1.690;2022-12-08T11:21:17;2.70;99.90
12504;DHT22;6316;48.118;-1.690;2022-12-08T11:23:48;2.70;99.90
12504;DHT22;6316;48.118;-1.690;2022-12-08T11:26:31;2.70;99.90
12504;DHT22;6316;48.118;-1.690;2022-12-08T11:28:58;2.70;99.90
12504;DHT22;6316;48.118;-1.690;2022-12-08T11:31:28;2.70;99.90
12504;DHT22;6316;48.118;-1.690;2022-12-08T11:33:55;2.80;99.90
12504;DHT22;6316;48.118;-1.690;2022-12-08T11:36:24;2.80;99.90
12504;DHT22;6316;48.118;-1.690;2022-12-08T11:38:58;2.80;99.90
12504;DHT22;6316;48.118;-1.690;2022-12-08T11:41:35;2.80;99.90
12504;DHT22;6316;48.118;-1.690;2022-12-08T11:44:25;2.80;99.90
12504;DHT22;6316;48.118;-1.690;2022-12-08T11:46:58;2.90;99.90
12504;DHT22;6316;48.118;-1.690;2022-12-08T11:49:46;2.90;99.90
12504;DHT22;6316;48.118;-1.690;2022-12-08T11:52:29;2.90;99.90
12504;DHT22;6316;48.118;-1.690;2022-12-08T11:55:25;3.00;99.90
12504;DHT22;6316;48.118;-1.690;2022-12-08T11:57:53;3.10;99.90
12504;DHT22;6316;48.118;-1.690;2022-12-08T12:00:21;3.10;99.90
12504;DHT22;6316;48.118;-1.690;2022-12-08T12:03:05;3.10;99.90
12504;DHT22;6316;48.118;-1.690;2022-12-08T12:05:46;3.10;99.90
12504;DHT22;6316;48.118;-1.690;2022-12-08T12:11:23;3.00;99.90
12504;DHT22;6316;48.118;-1.690;2022-12-08T12:14:31;3.10;99.90
12504;DHT22;6316;48.118;-1.690;2022-12-08T12:17:04;3.10;99.90
12504;DHT22;6316;48.118;-1.690;2022-12-08T12:19:34;3.10;99.90
12504;DHT22;6316;48.118;-1.690;2022-12-08T12:22:25;3.00;99.90
12504;DHT22;6316;48.118;-1.690;2022-12-08T12:24:54;3.00;99.90
12504;DHT22;6316;48.118;-1.690;2022-12-08T12:27:37;2.90;99.90
12504;DHT22;6316;48.118;-1.690;2022-12-08T12:30:08;2.90;99.90
12504;DHT22;6316;48.118;-1.690;2022-12-08T12:33:00;3.00;99.90
12504;DHT22;6316;48.118;-1.690;2022-12-08T12:35:50;3.00;99.90
12504;DHT22;6316;48.118;-1.690;2022-12-08T12:38:38;3.00;99.90
12504;DHT22;6316;48.118;-1.690;2022-12-08T12:41:56;3.00;99.90
12504;DHT22;6316;48.118;-1.690;2022-12-08T12:46:55;3.00;99.90
12504;DHT22;6316;48.118;-1.690;2022-12-08T12:55:15;3.10;99.90
12504;DHT22;6316;48.118;-1.690;2022-12-08T12:57:38;3.10;99.90
12504;DHT22;6316;48.118;-1.690;2022-12-08T13:00:06;3.20;99.90
12504;DHT22;6316;48.118;-1.690;2022-12-08T13:05:07;3.20;99.90
12504;DHT22;6316;48.118;-1.690;2022-12-08T13:10:30;3.20;99.90
12504;DHT22;6316;48.118;-1.690;2022-12-08T13:13:17;3.30;99.90
12504;DHT22;6316;48.118;-1.690;2022-12-08T13:18:33;3.40;99.90
12504;DHT22;6316;48.118;-1.690;2022-12-08T13:21:10;3.40;99.90
12504;DHT22;6316;48.118;-1.690;2022-12-08T13:26:43;3.40;99.90
12504;DHT22;6316;48.118;-1.690;2022-12-08T13:42:24;3.50;99.90
12504;DHT22;6316;48.118;-1.690;2022-12-08T13:47:46;3.50;99.90
12504;DHT22;6316;48.118;-1.690;2022-12-08T13:50:16;3.50;99.90
12504;DHT22;6316;48.118;-1.690;2022-12-08T13:52:54;3.50;99.90
12504;DHT22;6316;48.118;-1.690;2022-12-08T13:55:50;3.50;99.90
12504;DHT22;6316;48.118;-1.690;2022-12-08T13:58:32;3.50;99.90
12504;DHT22;6316;48.118;-1.690;2022-12-08T14:01:14;3.50;99.90
12504;DHT22;6316;48.118;-1.690;2022-12-08T14:03:55;3.60;99.90
12504;DHT22;6316;48.118;-1.690;2022-12-08T14:06:28;3.60;99.90
12504;DHT22;6316;48.118;-1.690;2022-12-08T14:08:57;3.50;99.90
12504;DHT22;6316;48.118;-1.690;2022-12-08T14:11:27;3.50;99.90
12504;DHT22;6316;48.118;-1.690;2022-12-08T14:16:48;3.60;99.90
12504;DHT22;6316;48.118;-1.690;2022-12-08T14:19:20;3.60;99.90
12504;DHT22;6316;48.118;-1.690;2022-12-08T14:22:12;3.60;99.90
12504;DHT22;6316;48.118;-1.690;2022-12-08T14:24:43;3.70;99.90
12504;DHT22;6316;48.118;-1.690;2022-12-08T14:27:14;3.60;99.90
12504;DHT22;6316;48.118;-1.690;2022-12-08T14:35:09;3.70;99.90
12504;DHT22;6316;48.118;-1.690;2022-12-08T14:40:33;3.70;99.90
12504;DHT22;6316;48.118;-1.690;2022-12-08T14:48:19;3.80;99.90
12504;DHT22;6316;48.118;-1.690;2022-12-08T14:53:20;3.70;99.90
12504;DHT22;6316;48.118;-1.690;2022-12-08T14:55:47;3.70;99.90
12504;DHT22;6316;48.118;-1.690;2022-12-08T15:00:50;3.80;99.90
12504;DHT22;6316;48.118;-1.690;2022-12-08T15:03:20;3.80;99.90
12504;DHT22;6316;48.118;-1.690;2022-12-08T15:05:51;3.80;99.90
12504;DHT22;6316;48.118;-1.690;2022-12-08T15:08:17;3.80;99.90
12504;DHT22;6316;48.118;-1.690;2022-12-08T15:10:43;3.80;99.90
12504;DHT22;6316;48.118;-1.690;2022-12-08T15:15:48;3.80;99.90
12504;DHT22;6316;48.118;-1.690;2022-12-08T15:20:54;4.00;99.90
12504;DHT22;6316;48.118;-1.690;2022-12-08T15:25:49;3.90;99.90
12504;DHT22;6316;48.118;-1.690;2022-12-08T15:28:18;3.90;99.90
12504;DHT22;6316;48.118;-1.690;2022-12-08T15:30:44;3.90;99.90
12504;DHT22;6316;48.118;-1.690;2022-12-08T15:33:10;3.90;99.90
12504;DHT22;6316;48.118;-1.690;2022-12-08T15:35:36;3.90;99.90
12504;DHT22;6316;48.118;-1.690;2022-12-08T15:38:02;3.90;99.90
12504;DHT22;6316;48.118;-1.690;2022-12-08T15:40:27;3.90;99.90
12504;DHT22;6316;48.118;-1.690;2022-12-08T15:42:53;3.90;99.90
12504;DHT22;6316;48.118;-1.690;2022-12-08T15:45:25;3.90;99.90
12504;DHT22;6316;48.118;-1.690;2022-12-08T15:47:51;3.90;99.90
12504;DHT22;6316;48.118;-1.690;2022-12-08T15:50:18;3.90;99.90
12504;DHT22;6316;48.118;-1.690;2022-12-08T15:52:44;3.90;99.90
12504;DHT22;6316;48.118;-1.690;2022-12-08T15:55:15;4.00;99.90
12504;DHT22;6316;48.118;-1.690;2022-12-08T15:57:43;4.00;99.90
12504;DHT22;6316;48.118;-1.690;2022-12-08T16:02:49;3.90;99.90
12504;DHT22;6316;48.118;-1.690;2022-12-08T16:05:15;3.90;99.90
12504;DHT22;6316;48.118;-1.690;2022-12-08T16:07:41;3.90;99.90
12504;DHT22;6316;48.118;-1.690;2022-12-08T16:10:23;3.90;99.90
12504;DHT22;6316;48.118;-1.690;2022-12-08T16:12:49;3.90;99.90
12504;DHT22;6316;48.118;-1.690;2022-12-08T16:15:40;3.90;99.90
12504;DHT22;6316;48.118;-1.690;2022-12-08T16:18:16;3.90;99.90
12504;DHT22;6316;48.118;-1.690;2022-12-08T16:20:49;3.90;99.90
12504;DHT22;6316;48.118;-1.690;2022-12-08T16:23:15;3.90;99.90
12504;DHT22;6316;48.118;-1.690;2022-12-08T16:25:41;3.90;99.90
12504;DHT22;6316;48.118;-1.690;2022-12-08T16:28:08;4.00;99.90
12504;DHT22;6316;48.118;-1.690;2022-12-08T16:30:35;3.90;99.90
12504;DHT22;6316;48.118;-1.690;2022-12-08T16:33:00;3.90;99.90
12504;DHT22;6316;48.118;-1.690;2022-12-08T16:35:26;3.90;99.90
12504;DHT22;6316;48.118;-1.690;2022-12-08T16:37:52;3.90;99.90
12504;DHT22;6316;48.118;-1.690;2022-12-08T16:40:17;3.90;99.90
12504;DHT22;6316;48.118;-1.690;2022-12-08T16:42:43;3.90;99.90
12504;DHT22;6316;48.118;-1.690;2022-12-08T16:45:14;3.90;99.90
12504;DHT22;6316;48.118;-1.690;2022-12-08T16:47:43;3.90;99.90
12504;DHT22;6316;48.118;-1.690;2022-12-08T16:50:12;3.90;99.90
12504;DHT22;6316;48.118;-1.690;2022-12-08T16:52:38;3.90;99.90
12504;DHT22;6316;48.118;-1.690;2022-12-08T16:55:09;3.90;99.90
12504;DHT22;6316;48.118;-1.690;2022-12-08T16:57:35;3.90;99.90
12504;DHT22;6316;48.118;-1.690;2022-12-08T17:00:01;3.90;99.90
12504;DHT22;6316;48.118;-1.690;2022-12-08T17:02:27;3.90;99.90
12504;DHT22;6316;48.118;-1.690;2022-12-08T17:04:52;3.90;99.90
12504;DHT22;6316;48.118;-1.690;2022-12-08T17:07:18;3.90;99.90
12504;DHT22;6316;48.118;-1.690;2022-12-08T17:09:43;3.90;99.90
12504;DHT22;6316;48.118;-1.690;2022-12-08T17:12:09;3.80;99.90
12504;DHT22;6316;48.118;-1.690;2022-12-08T17:14:35;3.90;99.90
12504;DHT22;6316;48.118;-1.690;2022-12-08T17:17:01;3.90;99.90
12504;DHT22;6316;48.118;-1.690;2022-12-08T17:19:26;3.90;99.90
12504;DHT22;6316;48.118;-1.690;2022-12-08T17:21:52;4.00;99.90
12504;DHT22;6316;48.118;-1.690;2022-12-08T17:24:18;3.90;99.90
12504;DHT22;6316;48.118;-1.690;2022-12-08T17:26:45;3.90;99.90
12504;DHT22;6316;48.118;-1.690;2022-12-08T17:29:11;3.90;99.90
12504;DHT22;6316;48.118;-1.690;2022-12-08T17:31:36;3.90;99.90
12504;DHT22;6316;48.118;-1.690;2022-12-08T17:34:04;3.90;99.90
12504;DHT22;6316;48.118;-1.690;2022-12-08T17:36:30;3.90;99.90
12504;DHT22;6316;48.118;-1.690;2022-12-08T17:38:58;3.90;99.90
12504;DHT22;6316;48.118;-1.690;2022-12-08T17:41:23;3.90;99.90
12504;DHT22;6316;48.118;-1.690;2022-12-08T17:43:49;3.90;99.90
12504;DHT22;6316;48.118;-1.690;2022-12-08T17:46:17;3.90;99.90
12504;DHT22;6316;48.118;-1.690;2022-12-08T17:48:42;3.90;99.90
12504;DHT22;6316;48.118;-1.690;2022-12-08T17:51:08;3.90;99.90